createdAt,value
2023-08-17T00:00:29.016Z,58.99
2023-08-17T00:02:59.296Z,59.21
2023-08-17T00:05:30.140Z,59.27
2023-08-17T00:08:00.409Z,58.98
2023-08-17T00:10:30.827Z,59.06
2023-08-17T00:13:01.607Z,58.81
2023-08-17T00:15:32.022Z,59.25
2023-08-17T00:18:02.445Z,58.99
2023-08-17T00:20:33.036Z,59.62
2023-08-17T00:23:03.295Z,59.68
2023-08-17T00:25:33.720Z,59.28
2023-08-17T00:28:04.081Z,59.03
2023-08-17T00:30:39.486Z,59.22
2023-08-17T00:33:10.405Z,59.26
2023-08-17T00:35:40.702Z,59.17
2023-08-17T00:38:11.294Z,59.38
2023-08-17T00:40:42.152Z,58.97
2023-08-17T00:43:12.556Z,59.13
2023-08-17T00:45:44.365Z,59.40
2023-08-17T00:48:15.303Z,59.36
2023-08-17T00:50:47.332Z,59.00
2023-08-17T00:53:19.801Z,59.38
2023-08-17T00:55:50.488Z,59.39
2023-08-17T00:58:20.940Z,58.97
2023-08-17T01:00:51.762Z,58.88
2023-08-17T01:03:24.564Z,59.14
2023-08-17T01:05:55.146Z,59.14
2023-08-17T01:08:26.036Z,59.34
2023-08-17T01:11:03.589Z,59.22
2023-08-17T01:14:26.759Z,59.06
2023-08-17T01:17:16.392Z,59.33
2023-08-17T01:19:49.007Z,59.00
2023-08-17T01:22:25.115Z,58.68
2023-08-17T01:25:02.267Z,58.74
2023-08-17T01:27:45.548Z,58.91
2023-08-17T01:30:18.945Z,58.49
2023-08-17T01:32:55.435Z,58.53
2023-08-17T01:35:49.856Z,58.66
2023-08-17T01:38:24.117Z,58.48
2023-08-17T01:40:57.498Z,58.80
2023-08-17T01:43:27.924Z,58.79
2023-08-17T01:45:58.737Z,58.55
2023-08-17T01:48:30.566Z,59.05
2023-08-17T01:51:01.307Z,58.69
2023-08-17T01:53:31.836Z,58.88
2023-08-17T01:56:02.369Z,58.53
2023-08-17T01:58:32.864Z,58.38
2023-08-17T02:01:03.227Z,58.19
2023-08-17T02:03:33.889Z,58.25
2023-08-17T02:06:04.531Z,58.25
2023-08-17T02:08:38.873Z,57.84
2023-08-17T02:11:09.211Z,58.05
2023-08-17T02:13:40.683Z,58.41
2023-08-17T02:16:11.129Z,57.66
2023-08-17T02:18:41.502Z,58.00
2023-08-17T02:21:12.881Z,58.16
2023-08-17T02:23:43.528Z,58.06
2023-08-17T02:26:14.214Z,58.00
2023-08-17T02:28:44.576Z,58.04
2023-08-17T02:31:14.930Z,58.22
2023-08-17T02:33:45.449Z,58.30
2023-08-17T02:36:16.139Z,58.44
2023-08-17T02:38:46.467Z,57.92
2023-08-17T02:41:16.756Z,57.94
2023-08-17T02:43:48.012Z,58.13
2023-08-17T02:46:18.706Z,57.79
2023-08-17T02:48:49.878Z,57.95
2023-08-17T02:51:21.806Z,57.44
2023-08-17T02:53:52.176Z,57.82
2023-08-17T02:56:22.629Z,57.37
2023-08-17T02:58:53.011Z,57.22
2023-08-17T03:01:23.482Z,56.96
2023-08-17T03:03:53.812Z,57.10
2023-08-17T03:06:24.135Z,57.20
2023-08-17T03:08:56.035Z,57.28
2023-08-17T03:11:26.408Z,57.14
2023-08-17T03:14:03.296Z,57.31
2023-08-17T03:16:34.240Z,56.65
2023-08-17T03:19:04.675Z,56.74
2023-08-17T03:21:36.019Z,56.97
2023-08-17T03:24:06.684Z,57.20
2023-08-17T03:26:37.158Z,56.58
2023-08-17T03:29:07.703Z,56.62
2023-08-17T03:31:38.254Z,56.76
2023-08-17T03:34:11.366Z,56.72
2023-08-17T03:36:41.719Z,56.30
2023-08-17T03:39:12.972Z,56.29
2023-08-17T03:41:43.530Z,56.26
2023-08-17T03:44:13.946Z,56.41
2023-08-17T03:46:44.340Z,56.38
2023-08-17T03:49:15.035Z,56.72
2023-08-17T03:51:45.360Z,56.48
2023-08-17T03:54:16.754Z,57.18
2023-08-17T03:56:47.054Z,56.78
2023-08-17T03:59:18.353Z,56.71
2023-08-17T04:01:48.419Z,56.93
2023-08-17T04:04:18.927Z,56.76
2023-08-17T04:06:49.297Z,56.81
2023-08-17T04:09:19.675Z,56.88
2023-08-17T04:11:50.031Z,56.84
2023-08-17T04:14:20.478Z,56.54
2023-08-17T04:16:51.773Z,56.62
2023-08-17T04:19:22.878Z,56.37
2023-08-17T04:21:53.247Z,56.21
2023-08-17T04:24:23.550Z,56.21
2023-08-17T04:26:53.987Z,56.14
2023-08-17T04:29:24.350Z,55.90
2023-08-17T04:31:55.223Z,56.38
2023-08-17T04:34:25.736Z,56.06
2023-08-17T04:36:56.135Z,56.23
2023-08-17T04:39:26.680Z,55.86
2023-08-17T04:41:57.101Z,56.43
2023-08-17T04:44:33.515Z,55.97
2023-08-17T04:47:05.291Z,56.31
2023-08-17T04:49:36.476Z,56.06
2023-08-17T04:52:07.626Z,56.23
2023-08-17T04:54:38.970Z,56.11
2023-08-17T04:57:09.255Z,56.13
2023-08-17T04:59:39.835Z,55.80
2023-08-17T05:02:10.817Z,56.05
2023-08-17T05:04:43.397Z,55.94
2023-08-17T05:07:14.229Z,56.09
2023-08-17T05:09:44.751Z,56.06
2023-08-17T05:12:15.152Z,56.26
2023-08-17T05:14:46.716Z,56.06
2023-08-17T05:17:17.049Z,56.23
2023-08-17T05:19:47.503Z,56.09
2023-08-17T05:22:18.798Z,55.76
2023-08-17T05:24:49.284Z,55.84
2023-08-17T05:27:19.654Z,56.02
2023-08-17T05:29:52.072Z,55.87
2023-08-17T05:32:22.612Z,55.63
2023-08-17T05:34:54.339Z,55.86
2023-08-17T05:37:25.033Z,55.31
2023-08-17T05:39:56.021Z,55.52
2023-08-17T05:42:26.278Z,55.50
2023-08-17T05:44:56.553Z,55.92
2023-08-17T05:47:27.337Z,55.44
2023-08-17T05:49:57.821Z,55.74
2023-08-17T05:52:27.995Z,55.91
2023-08-17T05:54:58.126Z,55.86
2023-08-17T05:57:28.572Z,55.66
2023-08-17T05:59:59.191Z,55.32
2023-08-17T06:02:30.296Z,55.42
2023-08-17T06:05:00.177Z,55.49
2023-08-17T06:07:30.615Z,55.37
2023-08-17T06:10:00.965Z,55.54
2023-08-17T06:12:31.268Z,55.53
2023-08-17T06:15:01.578Z,55.36
2023-08-17T06:17:31.821Z,55.41
2023-08-17T06:20:02.198Z,55.30
2023-08-17T06:22:32.652Z,55.55
2023-08-17T06:25:03.093Z,55.51
2023-08-17T06:27:33.285Z,55.42
2023-08-17T06:30:03.425Z,55.34
2023-08-17T06:32:36.853Z,55.44
2023-08-17T06:35:07.417Z,55.29
2023-08-17T06:37:38.003Z,55.24
2023-08-17T06:40:10.536Z,55.25
2023-08-17T06:42:41.806Z,55.41
2023-08-17T06:45:12.521Z,55.34
2023-08-17T06:47:42.877Z,55.39
2023-08-17T06:50:13.517Z,55.23
2023-08-17T06:52:44.229Z,55.32
2023-08-17T06:55:14.698Z,55.32
2023-08-17T06:57:45.076Z,55.33
2023-08-17T07:00:16.349Z,55.33
2023-08-17T07:02:53.681Z,55.35
2023-08-17T07:05:26.029Z,55.54
2023-08-17T07:07:56.618Z,55.48
2023-08-17T07:10:27.026Z,55.18
2023-08-17T07:12:57.279Z,55.53
2023-08-17T07:15:27.600Z,55.18
2023-08-17T07:17:57.905Z,55.28
2023-08-17T07:20:28.849Z,55.19
2023-08-17T07:22:59.144Z,55.24
2023-08-17T07:25:29.520Z,55.07
2023-08-17T07:27:59.856Z,55.27
2023-08-17T07:30:30.149Z,55.13
2023-08-17T07:33:00.523Z,55.02
2023-08-17T07:35:31.027Z,55.27
2023-08-17T07:38:08.987Z,55.00
2023-08-17T07:40:40.217Z,55.05
2023-08-17T07:43:10.563Z,55.11
2023-08-17T07:45:40.922Z,55.13
2023-08-17T07:48:11.325Z,54.90
2023-08-17T07:50:41.644Z,54.75
2023-08-17T07:53:11.988Z,54.27
2023-08-17T07:55:42.376Z,54.60
2023-08-17T07:58:12.729Z,54.57
2023-08-17T08:00:43.055Z,54.52
2023-08-17T08:03:13.410Z,54.64
2023-08-17T08:05:43.759Z,54.53
2023-08-17T08:08:14.251Z,54.67
2023-08-17T08:10:44.966Z,54.68
2023-08-17T08:13:15.627Z,54.15
2023-08-17T08:15:47.269Z,54.41
2023-08-17T08:18:17.709Z,54.26
2023-08-17T08:20:48.075Z,54.49
2023-08-17T08:23:18.777Z,54.63
2023-08-17T08:25:49.097Z,54.75
2023-08-17T08:28:20.697Z,54.39
2023-08-17T08:30:51.155Z,54.53
2023-08-17T08:33:21.713Z,54.28
2023-08-17T08:35:52.170Z,54.36
2023-08-17T08:38:22.642Z,54.32
2023-08-17T08:40:53.002Z,54.54
2023-08-17T08:43:23.918Z,54.26
2023-08-17T08:45:55.576Z,54.38
2023-08-17T08:48:27.413Z,54.16
2023-08-17T08:51:00.160Z,54.38
2023-08-17T08:53:42.004Z,54.34
2023-08-17T08:56:18.263Z,54.28
2023-08-17T08:58:54.672Z,54.32
2023-08-17T09:01:25.977Z,54.05
2023-08-17T09:03:57.690Z,53.93
2023-08-17T09:06:29.562Z,54.05
2023-08-17T09:09:03.222Z,54.03
2023-08-17T09:11:33.803Z,53.87
2023-08-17T09:14:04.178Z,53.90
2023-08-17T09:16:34.626Z,53.82
2023-08-17T09:19:05.225Z,54.13
2023-08-17T09:21:36.763Z,53.77
2023-08-17T09:24:07.424Z,54.05
2023-08-17T09:26:37.970Z,54.14
2023-08-17T09:29:24.281Z,54.06
2023-08-17T09:31:54.992Z,53.93
2023-08-17T09:34:25.302Z,54.10
2023-08-17T09:36:55.712Z,53.97
2023-08-17T09:39:25.992Z,53.81
2023-08-17T09:41:58.979Z,54.06
2023-08-17T09:44:29.380Z,53.87
2023-08-17T14:52:53.037Z,61.46
2023-08-17T14:55:23.398Z,60.85
2023-08-17T14:57:53.716Z,60.52
2023-08-17T15:00:24.079Z,60.52
2023-08-17T15:02:55.193Z,60.41
2023-08-17T15:05:28.890Z,60.26
2023-08-17T15:07:59.514Z,60.34
2023-08-17T15:10:31.380Z,60.50
2023-08-17T15:13:02.046Z,60.01
2023-08-17T15:15:32.552Z,60.31
2023-08-17T15:18:03.136Z,60.13
2023-08-17T15:20:34.316Z,59.63
2023-08-17T15:23:04.986Z,59.58
2023-08-17T15:25:35.707Z,59.17
2023-08-17T15:28:06.137Z,58.68
2023-08-17T15:30:36.258Z,58.54
2023-08-17T15:33:06.615Z,58.70
2023-08-17T15:35:36.919Z,59.40
2023-08-17T15:38:07.428Z,58.98
2023-08-17T15:40:37.790Z,59.12
2023-08-17T15:43:08.131Z,58.65
2023-08-17T15:45:38.487Z,58.27
2023-08-17T15:48:09.048Z,58.46
2023-08-17T15:50:39.389Z,59.21
2023-08-17T15:53:12.197Z,59.00
2023-08-17T15:55:42.681Z,58.84
2023-08-17T15:58:13.271Z,58.92
2023-08-17T16:00:43.857Z,58.83
2023-08-17T16:03:14.301Z,58.79
2023-08-17T16:05:44.634Z,58.74
2023-08-17T16:08:15.318Z,58.79
2023-08-17T16:10:45.880Z,59.19
2023-08-17T16:13:16.227Z,58.86
2023-08-17T16:15:46.774Z,58.92
2023-08-17T16:18:23.052Z,58.85
2023-08-17T16:20:53.573Z,58.84
2023-08-17T16:23:23.902Z,58.82
2023-08-17T16:25:54.408Z,58.84
2023-08-17T16:28:24.758Z,58.50
2023-08-17T16:30:55.047Z,58.19
2023-08-17T16:33:25.308Z,57.83
2023-08-17T16:35:55.676Z,57.87
2023-08-17T16:38:27.777Z,58.05
2023-08-17T16:40:58.045Z,57.57
2023-08-17T16:43:28.295Z,57.85
2023-08-17T16:45:58.515Z,58.03
2023-08-17T16:48:28.875Z,57.61
2023-08-17T16:50:59.580Z,57.84
2023-08-17T16:53:29.939Z,58.02
2023-08-17T16:56:02.092Z,57.87
2023-08-17T16:58:32.424Z,58.13
2023-08-17T17:01:04.478Z,57.77
2023-08-17T17:03:36.016Z,57.69
2023-08-17T17:06:06.448Z,57.95
2023-08-17T17:08:36.828Z,57.92
2023-08-17T17:11:07.310Z,58.20
2023-08-17T17:13:38.123Z,58.02
2023-08-17T17:16:08.608Z,58.08
2023-08-17T17:18:39.145Z,58.24
2023-08-17T17:21:14.738Z,58.09
2023-08-17T17:23:45.094Z,57.90
2023-08-17T17:26:15.388Z,58.15
2023-08-17T17:28:45.681Z,58.12
2023-08-17T17:31:16.282Z,58.05
2023-08-17T17:33:46.574Z,58.43
2023-08-17T17:36:16.807Z,57.76
2023-08-17T17:38:47.040Z,57.82
2023-08-17T17:41:17.611Z,58.45
2023-08-17T17:43:48.030Z,58.04
2023-08-17T17:46:18.397Z,58.18
2023-08-17T17:48:49.547Z,57.94
2023-08-17T17:51:20.666Z,58.35
2023-08-17T17:53:51.021Z,58.31
2023-08-17T17:56:21.371Z,58.20
2023-08-17T17:58:51.546Z,58.00
2023-08-17T18:01:21.841Z,57.94
2023-08-17T18:03:52.095Z,57.88
2023-08-17T18:06:23.597Z,57.97
2023-08-17T18:08:53.998Z,58.13
2023-08-17T18:11:24.315Z,57.72
2023-08-17T18:13:55.102Z,58.20
2023-08-17T18:16:26.746Z,58.13
2023-08-17T18:18:57.279Z,57.97
2023-08-17T18:21:27.674Z,57.98
2023-08-17T18:23:59.111Z,57.92
2023-08-17T18:26:30.513Z,58.19
2023-08-17T18:29:00.647Z,58.12
2023-08-17T18:31:31.478Z,57.83
2023-08-17T18:34:01.782Z,57.96
2023-08-17T18:36:32.316Z,57.96
2023-08-17T18:39:02.794Z,57.94
2023-08-17T18:41:33.131Z,57.67
2023-08-17T18:44:03.768Z,58.09
2023-08-17T18:46:33.955Z,58.02
2023-08-17T18:49:04.305Z,58.01
2023-08-17T18:51:34.656Z,57.67
2023-08-17T18:54:04.917Z,58.05
2023-08-17T18:56:35.325Z,57.87
2023-08-17T18:59:05.642Z,58.08
2023-08-17T19:01:35.910Z,58.14
2023-08-17T19:04:06.284Z,57.97
2023-08-17T19:06:36.568Z,58.12
2023-08-17T19:09:07.233Z,57.91
2023-08-17T19:11:37.497Z,57.66
2023-08-17T19:14:08.985Z,58.04
2023-08-17T19:16:39.335Z,57.82
2023-08-17T19:19:09.710Z,57.86
2023-08-17T19:21:39.988Z,57.87
2023-08-17T19:24:10.497Z,57.66
2023-08-17T19:26:41.586Z,57.62
2023-08-17T19:29:13.050Z,57.73
2023-08-17T19:31:43.333Z,57.74
2023-08-17T19:34:13.704Z,58.08
2023-08-17T19:36:44.122Z,57.93
2023-08-17T19:39:14.786Z,57.99
2023-08-17T19:41:47.001Z,57.53
2023-08-17T19:44:18.323Z,57.85
2023-08-17T19:46:48.704Z,57.81
2023-08-17T19:49:18.954Z,57.85
2023-08-17T19:51:49.781Z,58.02
2023-08-17T19:54:20.664Z,57.96
2023-08-17T19:56:51.062Z,58.12
2023-08-17T19:59:21.315Z,57.99
2023-08-17T20:01:52.055Z,58.00
2023-08-17T20:04:22.354Z,58.15
2023-08-17T20:06:53.051Z,57.84
2023-08-17T20:09:23.372Z,57.85
2023-08-17T20:11:54.102Z,57.74
2023-08-17T20:14:24.414Z,58.30
2023-08-17T20:16:54.619Z,57.99
2023-08-17T20:19:26.059Z,58.33
2023-08-17T20:21:56.348Z,58.10
2023-08-17T20:24:27.258Z,58.22
2023-08-17T20:26:57.696Z,58.23
2023-08-17T20:29:28.075Z,58.17
2023-08-17T20:31:58.995Z,58.47
2023-08-17T20:34:29.617Z,58.21
2023-08-17T20:36:59.927Z,58.27
2023-08-17T20:39:30.190Z,58.26
2023-08-17T20:42:10.573Z,58.48
2023-08-17T20:44:43.255Z,58.47
2023-08-17T20:47:14.119Z,58.59
2023-08-17T20:49:46.042Z,58.62
2023-08-17T20:52:18.074Z,58.32
2023-08-17T20:54:48.457Z,58.72
2023-08-17T20:57:19.027Z,58.58
2023-08-17T20:59:49.414Z,58.87
2023-08-17T21:02:20.219Z,58.83
2023-08-17T21:04:50.698Z,58.71
2023-08-17T21:07:20.979Z,58.90
2023-08-17T21:09:51.311Z,58.48
2023-08-17T21:12:21.537Z,58.38
2023-08-17T21:14:53.051Z,58.49
2023-08-17T21:17:23.497Z,58.64
2023-08-17T21:19:53.797Z,58.44
2023-08-17T21:22:24.143Z,58.59
2023-08-17T21:24:54.455Z,58.47
2023-08-17T21:27:24.727Z,58.59
2023-08-17T21:29:55.192Z,58.82
2023-08-17T21:32:25.606Z,58.50
2023-08-17T21:34:56.008Z,58.41
2023-08-17T21:37:31.973Z,58.75
2023-08-17T21:40:03.048Z,58.65
2023-08-17T21:42:33.364Z,58.59
2023-08-17T21:45:03.738Z,58.37
2023-08-17T21:47:34.206Z,58.52
2023-08-17T21:50:04.548Z,58.38
2023-08-17T21:52:34.847Z,58.24
2023-08-17T21:55:05.204Z,58.59
2023-08-17T21:57:35.606Z,58.22
2023-08-17T22:00:07.452Z,58.30
2023-08-17T22:02:37.741Z,58.31
2023-08-17T22:05:08.574Z,58.44
2023-08-17T22:07:38.913Z,58.16
2023-08-17T22:10:09.889Z,58.30
2023-08-17T22:12:40.331Z,58.38
2023-08-17T22:15:10.889Z,58.50
2023-08-17T22:17:41.524Z,58.32
2023-08-17T22:20:13.667Z,58.27
2023-08-17T22:22:43.959Z,58.54
2023-08-17T22:25:14.370Z,58.83
2023-08-17T22:27:44.910Z,58.91
2023-08-17T22:30:15.702Z,59.04
2023-08-17T22:32:46.475Z,59.01
2023-08-17T22:35:17.278Z,59.05
2023-08-17T22:37:47.940Z,59.25
2023-08-17T22:40:18.556Z,58.88
2023-08-17T22:42:48.847Z,58.80
2023-08-17T22:45:19.124Z,59.05
2023-08-17T22:47:49.451Z,58.46
2023-08-17T22:50:19.923Z,58.38
2023-08-17T22:52:50.224Z,58.36
2023-08-17T22:56:43.405Z,58.74
2023-08-17T22:59:13.731Z,58.45
2023-08-17T23:01:44.380Z,58.42
2023-08-17T23:04:14.879Z,58.68
2023-08-17T23:06:46.312Z,58.39
2023-08-17T23:09:17.068Z,58.52
2023-08-17T23:11:50.262Z,58.41
2023-08-17T23:14:20.559Z,58.46
2023-08-17T23:16:50.811Z,58.24
2023-08-17T23:19:21.150Z,58.41
2023-08-17T23:21:51.572Z,58.51
2023-08-17T23:24:21.886Z,58.75
2023-08-17T23:26:52.119Z,58.62
2023-08-17T23:29:22.311Z,58.44
2023-08-17T23:31:52.647Z,58.25
2023-08-17T23:34:22.891Z,58.15
2023-08-17T23:36:56.890Z,58.07
2023-08-17T23:39:27.925Z,58.41
2023-08-17T23:41:59.299Z,58.30
2023-08-17T23:44:29.359Z,58.34
2023-08-17T23:46:59.496Z,58.38
2023-08-17T23:49:31.967Z,58.45
2023-08-17T23:52:02.232Z,58.49
2023-08-17T23:54:32.548Z,58.47
2023-08-17T23:57:02.871Z,58.49
2023-08-17T23:59:33.122Z,58.44
